sensor_id;sensor_type;location;lat;lon;timestamp;P1;durP1;ratioP1;P2;durP2;ratioP2
3939;SDS011;1984;48.312;9.244;2023-07-24T00:00:44;9.63;;;5.33;;
3939;SDS011;1984;48.312;9.244;2023-07-24T00:03:09;9.87;;;5.97;;
3939;SDS011;1984;48.312;9.244;2023-07-24T00:05:35;7.90;;;5.33;;
3939;SDS011;1984;48.312;9.244;2023-07-24T00:08:00;9.00;;;5.43;;
3939;SDS011;1984;48.312;9.244;2023-07-24T00:10:26;9.70;;;5.80;;
3939;SDS011;1984;48.312;9.244;2023-07-24T00:12:52;13.73;;;5.47;;
3939;SDS011;1984;48.312;9.244;2023-07-24T00:15:17;8.07;;;4.77;;
3939;SDS011;1984;48.312;9.244;2023-07-24T00:17:43;14.10;;;5.87;;
3939;SDS011;1984;48.312;9.244;2023-07-24T00:20:08;9.00;;;5.43;;
3939;SDS011;1984;48.312;9.244;2023-07-24T00:22:34;7.33;;;5.23;;
3939;SDS011;1984;48.312;9.244;2023-07-24T00:25:00;11.60;;;6.10;;
3939;SDS011;1984;48.312;9.244;2023-07-24T00:27:25;10.77;;;6.33;;
3939;SDS011;1984;48.312;9.244;2023-07-24T00:29:51;10.03;;;6.10;;
3939;SDS011;1984;48.312;9.244;2023-07-24T00:32:16;11.87;;;6.43;;
3939;SDS011;1984;48.312;9.244;2023-07-24T00:34:42;10.93;;;6.23;;
3939;SDS011;1984;48.312;9.244;2023-07-24T00:37:07;9.43;;;6.30;;
3939;SDS011;1984;48.312;9.244;2023-07-24T00:39:33;8.30;;;5.40;;
3939;SDS011;1984;48.312;9.244;2023-07-24T00:41:58;9.80;;;5.00;;
3939;SDS011;1984;48.312;9.244;2023-07-24T00:44:24;9.93;;;5.73;;
3939;SDS011;1984;48.312;9.244;2023-07-24T00:46:49;9.73;;;5.73;;
3939;SDS011;1984;48.312;9.244;2023-07-24T00:49:15;8.73;;;5.07;;
3939;SDS011;1984;48.312;9.244;2023-07-24T00:51:42;9.63;;;5.63;;
3939;SDS011;1984;48.312;9.244;2023-07-24T00:54:09;8.73;;;5.63;;
3939;SDS011;1984;48.312;9.244;2023-07-24T00:56:37;8.93;;;6.07;;
3939;SDS011;1984;48.312;9.244;2023-07-24T00:59:02;11.30;;;6.70;;
3939;SDS011;1984;48.312;9.244;2023-07-24T01:01:28;7.93;;;5.10;;
3939;SDS011;1984;48.312;9.244;2023-07-24T01:03:54;11.63;;;5.20;;
3939;SDS011;1984;48.312;9.244;2023-07-24T01:06:22;11.20;;;6.27;;
3939;SDS011;1984;48.312;9.244;2023-07-24T01:08:48;9.87;;;6.60;;
3939;SDS011;1984;48.312;9.244;2023-07-24T01:11:21;9.37;;;5.67;;
3939;SDS011;1984;48.312;9.244;2023-07-24T01:14:44;10.87;;;5.20;;
3939;SDS011;1984;48.312;9.244;2023-07-24T01:16:57;7.60;;;5.50;;
3939;SDS011;1984;48.312;9.244;2023-07-24T01:25:09;9.60;;;5.30;;
3939;SDS011;1984;48.312;9.244;2023-07-24T01:27:40;8.83;;;6.03;;
3939;SDS011;1984;48.312;9.244;2023-07-24T01:30:09;8.37;;;5.23;;
3939;SDS011;1984;48.312;9.244;2023-07-24T01:32:36;9.83;;;5.47;;
3939;SDS011;1984;48.312;9.244;2023-07-24T01:35:02;13.47;;;6.63;;
3939;SDS011;1984;48.312;9.244;2023-07-24T01:37:28;9.77;;;6.67;;
3939;SDS011;1984;48.312;9.244;2023-07-24T01:39:54;11.93;;;6.13;;
3939;SDS011;1984;48.312;9.244;2023-07-24T01:42:21;9.80;;;5.53;;
3939;SDS011;1984;48.312;9.244;2023-07-24T01:44:53;15.00;;;6.60;;
3939;SDS011;1984;48.312;9.244;2023-07-24T01:47:20;11.90;;;6.40;;
3939;SDS011;1984;48.312;9.244;2023-07-24T01:49:46;10.77;;;5.67;;
3939;SDS011;1984;48.312;9.244;2023-07-24T01:52:11;9.17;;;5.80;;
3939;SDS011;1984;48.312;9.244;2023-07-24T01:54:37;9.87;;;6.07;;
3939;SDS011;1984;48.312;9.244;2023-07-24T01:57:02;11.20;;;6.90;;
3939;SDS011;1984;48.312;9.244;2023-07-24T01:59:28;9.43;;;5.90;;
3939;SDS011;1984;48.312;9.244;2023-07-24T02:01:53;9.10;;;5.83;;
3939;SDS011;1984;48.312;9.244;2023-07-24T02:04:19;14.03;;;6.70;;
3939;SDS011;1984;48.312;9.244;2023-07-24T02:06:47;12.13;;;6.60;;
3939;SDS011;1984;48.312;9.244;2023-07-24T02:09:13;11.93;;;6.77;;
3939;SDS011;1984;48.312;9.244;2023-07-24T02:11:39;9.03;;;5.27;;
3939;SDS011;1984;48.312;9.244;2023-07-24T02:14:05;10.77;;;5.90;;
3939;SDS011;1984;48.312;9.244;2023-07-24T02:16:30;11.77;;;6.60;;
3939;SDS011;1984;48.312;9.244;2023-07-24T02:18:56;11.17;;;6.60;;
3939;SDS011;1984;48.312;9.244;2023-07-24T02:21:21;12.40;;;6.43;;
3939;SDS011;1984;48.312;9.244;2023-07-24T02:23:47;14.03;;;5.97;;
3939;SDS011;1984;48.312;9.244;2023-07-24T02:26:12;14.70;;;6.67;;
3939;SDS011;1984;48.312;9.244;2023-07-24T02:28:38;15.80;;;7.00;;
3939;SDS011;1984;48.312;9.244;2023-07-24T02:31:03;11.23;;;5.60;;
3939;SDS011;1984;48.312;9.244;2023-07-24T02:33:29;12.33;;;6.60;;
3939;SDS011;1984;48.312;9.244;2023-07-24T02:35:55;10.73;;;6.03;;
3939;SDS011;1984;48.312;9.244;2023-07-24T02:38:21;10.67;;;5.77;;
3939;SDS011;1984;48.312;9.244;2023-07-24T02:40:46;11.10;;;5.90;;
3939;SDS011;1984;48.312;9.244;2023-07-24T02:43:12;10.17;;;5.50;;
3939;SDS011;1984;48.312;9.244;2023-07-24T02:45:38;9.13;;;6.03;;
3939;SDS011;1984;48.312;9.244;2023-07-24T02:48:03;16.17;;;7.20;;
3939;SDS011;1984;48.312;9.244;2023-07-24T02:50:30;12.20;;;6.20;;
3939;SDS011;1984;48.312;9.244;2023-07-24T02:52:55;13.80;;;6.60;;
3939;SDS011;1984;48.312;9.244;2023-07-24T02:55:21;13.27;;;6.97;;
3939;SDS011;1984;48.312;9.244;2023-07-24T03:00:14;21.03;;;7.77;;
3939;SDS011;1984;48.312;9.244;2023-07-24T03:02:40;12.77;;;6.90;;
3939;SDS011;1984;48.312;9.244;2023-07-24T03:05:05;12.87;;;6.47;;
3939;SDS011;1984;48.312;9.244;2023-07-24T03:07:31;20.73;;;9.60;;
3939;SDS011;1984;48.312;9.244;2023-07-24T03:09:57;24.47;;;14.13;;
3939;SDS011;1984;48.312;9.244;2023-07-24T03:12:23;22.53;;;13.00;;
3939;SDS011;1984;48.312;9.244;2023-07-24T03:14:48;17.00;;;10.30;;
3939;SDS011;1984;48.312;9.244;2023-07-24T03:17:14;17.73;;;7.87;;
3939;SDS011;1984;48.312;9.244;2023-07-24T03:19:40;11.53;;;7.00;;
3939;SDS011;1984;48.312;9.244;2023-07-24T03:22:06;22.47;;;9.37;;
3939;SDS011;1984;48.312;9.244;2023-07-24T03:24:32;24.10;;;14.10;;
3939;SDS011;1984;48.312;9.244;2023-07-24T03:26:58;34.60;;;18.73;;
3939;SDS011;1984;48.312;9.244;2023-07-24T03:29:25;35.50;;;17.60;;
3939;SDS011;1984;48.312;9.244;2023-07-24T03:31:53;24.00;;;11.90;;
3939;SDS011;1984;48.312;9.244;2023-07-24T03:34:19;18.13;;;9.03;;
3939;SDS011;1984;48.312;9.244;2023-07-24T03:36:44;13.73;;;7.63;;
3939;SDS011;1984;48.312;9.244;2023-07-24T03:39:10;13.70;;;7.43;;
3939;SDS011;1984;48.312;9.244;2023-07-24T03:41:36;12.20;;;7.30;;
3939;SDS011;1984;48.312;9.244;2023-07-24T03:44:02;12.17;;;7.40;;
3939;SDS011;1984;48.312;9.244;2023-07-24T03:46:27;14.97;;;7.70;;
3939;SDS011;1984;48.312;9.244;2023-07-24T03:48:53;11.83;;;6.37;;
3939;SDS011;1984;48.312;9.244;2023-07-24T03:51:18;13.40;;;7.03;;
3939;SDS011;1984;48.312;9.244;2023-07-24T03:53:44;11.73;;;6.73;;
3939;SDS011;1984;48.312;9.244;2023-07-24T03:56:10;11.03;;;7.53;;
3939;SDS011;1984;48.312;9.244;2023-07-24T03:58:35;12.13;;;7.13;;
3939;SDS011;1984;48.312;9.244;2023-07-24T04:01:01;11.57;;;6.10;;
3939;SDS011;1984;48.312;9.244;2023-07-24T04:03:27;13.70;;;6.90;;
3939;SDS011;1984;48.312;9.244;2023-07-24T04:05:53;11.77;;;5.87;;
3939;SDS011;1984;48.312;9.244;2023-07-24T04:08:19;12.77;;;6.90;;
3939;SDS011;1984;48.312;9.244;2023-07-24T04:10:44;13.43;;;6.73;;
3939;SDS011;1984;48.312;9.244;2023-07-24T04:13:09;15.60;;;7.50;;
3939;SDS011;1984;48.312;9.244;2023-07-24T04:15:35;10.50;;;6.53;;
3939;SDS011;1984;48.312;9.244;2023-07-24T04:18:01;9.80;;;5.93;;
3939;SDS011;1984;48.312;9.244;2023-07-24T04:20:27;13.67;;;6.97;;
3939;SDS011;1984;48.312;9.244;2023-07-24T04:22:52;12.50;;;7.10;;
3939;SDS011;1984;48.312;9.244;2023-07-24T04:25:18;12.10;;;6.27;;
3939;SDS011;1984;48.312;9.244;2023-07-24T04:27:44;9.83;;;6.83;;
3939;SDS011;1984;48.312;9.244;2023-07-24T04:30:09;11.20;;;6.70;;
3939;SDS011;1984;48.312;9.244;2023-07-24T04:32:35;14.50;;;6.67;;
3939;SDS011;1984;48.312;9.244;2023-07-24T04:35:01;9.87;;;6.67;;
3939;SDS011;1984;48.312;9.244;2023-07-24T04:37:27;13.00;;;7.20;;
3939;SDS011;1984;48.312;9.244;2023-07-24T04:39:52;12.27;;;7.37;;
3939;SDS011;1984;48.312;9.244;2023-07-24T04:42:18;11.80;;;6.53;;
3939;SDS011;1984;48.312;9.244;2023-07-24T04:44:43;12.67;;;6.53;;
3939;SDS011;1984;48.312;9.244;2023-07-24T04:47:09;11.13;;;7.07;;
3939;SDS011;1984;48.312;9.244;2023-07-24T04:49:34;11.10;;;7.03;;
3939;SDS011;1984;48.312;9.244;2023-07-24T04:52:00;11.23;;;6.87;;
3939;SDS011;1984;48.312;9.244;2023-07-24T04:54:26;12.60;;;7.13;;
3939;SDS011;1984;48.312;9.244;2023-07-24T04:56:51;12.37;;;6.47;;
3939;SDS011;1984;48.312;9.244;2023-07-24T04:59:17;13.30;;;6.50;;
3939;SDS011;1984;48.312;9.244;2023-07-24T05:01:42;14.07;;;7.30;;
3939;SDS011;1984;48.312;9.244;2023-07-24T05:04:08;13.93;;;7.07;;
3939;SDS011;1984;48.312;9.244;2023-07-24T05:06:33;12.00;;;7.83;;
3939;SDS011;1984;48.312;9.244;2023-07-24T05:09:00;13.63;;;7.03;;
3939;SDS011;1984;48.312;9.244;2023-07-24T05:11:26;14.37;;;6.97;;
3939;SDS011;1984;48.312;9.244;2023-07-24T05:13:51;14.60;;;7.83;;
3939;SDS011;1984;48.312;9.244;2023-07-24T05:16:17;13.47;;;8.40;;
3939;SDS011;1984;48.312;9.244;2023-07-24T05:18:43;12.60;;;7.73;;
3939;SDS011;1984;48.312;9.244;2023-07-24T05:21:08;15.10;;;7.80;;
3939;SDS011;1984;48.312;9.244;2023-07-24T05:23:34;13.83;;;8.07;;
3939;SDS011;1984;48.312;9.244;2023-07-24T05:26:00;11.27;;;7.27;;
3939;SDS011;1984;48.312;9.244;2023-07-24T05:28:26;10.70;;;6.20;;
3939;SDS011;1984;48.312;9.244;2023-07-24T05:30:53;11.90;;;6.60;;
3939;SDS011;1984;48.312;9.244;2023-07-24T05:33:18;12.47;;;7.53;;
3939;SDS011;1984;48.312;9.244;2023-07-24T05:35:44;18.37;;;7.43;;
3939;SDS011;1984;48.312;9.244;2023-07-24T05:38:09;15.13;;;7.00;;
3939;SDS011;1984;48.312;9.244;2023-07-24T05:40:35;11.77;;;7.10;;
3939;SDS011;1984;48.312;9.244;2023-07-24T05:43:00;13.63;;;7.40;;
3939;SDS011;1984;48.312;9.244;2023-07-24T05:45:26;12.53;;;7.00;;
3939;SDS011;1984;48.312;9.244;2023-07-24T05:47:52;12.97;;;6.70;;
3939;SDS011;1984;48.312;9.244;2023-07-24T05:50:18;12.90;;;7.70;;
3939;SDS011;1984;48.312;9.244;2023-07-24T05:52:44;12.30;;;7.43;;
3939;SDS011;1984;48.312;9.244;2023-07-24T05:55:09;12.40;;;7.50;;
3939;SDS011;1984;48.312;9.244;2023-07-24T05:57:35;12.73;;;7.30;;
3939;SDS011;1984;48.312;9.244;2023-07-24T06:00:02;12.00;;;7.43;;
3939;SDS011;1984;48.312;9.244;2023-07-24T06:02:31;10.60;;;6.33;;
3939;SDS011;1984;48.312;9.244;2023-07-24T06:04:57;12.93;;;6.93;;
3939;SDS011;1984;48.312;9.244;2023-07-24T06:07:22;9.40;;;6.17;;
3939;SDS011;1984;48.312;9.244;2023-07-24T06:09:48;13.03;;;6.80;;
3939;SDS011;1984;48.312;9.244;2023-07-24T06:12:13;9.83;;;6.03;;
3939;SDS011;1984;48.312;9.244;2023-07-24T06:14:39;11.07;;;6.40;;
3939;SDS011;1984;48.312;9.244;2023-07-24T06:17:05;17.83;;;7.37;;
3939;SDS011;1984;48.312;9.244;2023-07-24T06:19:30;15.00;;;7.50;;
3939;SDS011;1984;48.312;9.244;2023-07-24T06:21:56;16.63;;;7.37;;
3939;SDS011;1984;48.312;9.244;2023-07-24T06:24:21;13.80;;;6.60;;
3939;SDS011;1984;48.312;9.244;2023-07-24T06:26:48;9.57;;;6.60;;
3939;SDS011;1984;48.312;9.244;2023-07-24T06:29:14;12.20;;;7.53;;
3939;SDS011;1984;48.312;9.244;2023-07-24T06:31:40;16.93;;;7.23;;
3939;SDS011;1984;48.312;9.244;2023-07-24T06:34:05;11.20;;;6.50;;
3939;SDS011;1984;48.312;9.244;2023-07-24T06:36:31;8.20;;;5.80;;
3939;SDS011;1984;48.312;9.244;2023-07-24T06:38:56;14.87;;;7.20;;
3939;SDS011;1984;48.312;9.244;2023-07-24T06:41:22;12.67;;;6.57;;
3939;SDS011;1984;48.312;9.244;2023-07-24T06:43:48;8.57;;;5.60;;
3939;SDS011;1984;48.312;9.244;2023-07-24T06:46:14;8.63;;;5.87;;
3939;SDS011;1984;48.312;9.244;2023-07-24T06:48:39;15.93;;;6.57;;
3939;SDS011;1984;48.312;9.244;2023-07-24T06:51:05;10.50;;;5.90;;
3939;SDS011;1984;48.312;9.244;2023-07-24T06:53:30;13.00;;;6.97;;
3939;SDS011;1984;48.312;9.244;2023-07-24T06:55:56;12.07;;;6.40;;
3939;SDS011;1984;48.312;9.244;2023-07-24T06:58:21;12.90;;;7.47;;
3939;SDS011;1984;48.312;9.244;2023-07-24T07:00:47;10.37;;;6.80;;
3939;SDS011;1984;48.312;9.244;2023-07-24T07:03:12;11.67;;;7.00;;
3939;SDS011;1984;48.312;9.244;2023-07-24T07:05:38;12.00;;;6.23;;
3939;SDS011;1984;48.312;9.244;2023-07-24T07:08:03;10.70;;;5.73;;
3939;SDS011;1984;48.312;9.244;2023-07-24T07:10:30;13.43;;;7.37;;
3939;SDS011;1984;48.312;9.244;2023-07-24T07:12:56;11.27;;;6.07;;
3939;SDS011;1984;48.312;9.244;2023-07-24T07:15:21;7.40;;;6.03;;
3939;SDS011;1984;48.312;9.244;2023-07-24T07:17:47;9.43;;;6.13;;
3939;SDS011;1984;48.312;9.244;2023-07-24T07:20:12;18.53;;;5.70;;
3939;SDS011;1984;48.312;9.244;2023-07-24T07:22:38;9.50;;;5.60;;
3939;SDS011;1984;48.312;9.244;2023-07-24T07:25:03;8.40;;;5.63;;
3939;SDS011;1984;48.312;9.244;2023-07-24T07:27:29;9.67;;;4.97;;
3939;SDS011;1984;48.312;9.244;2023-07-24T07:29:55;7.87;;;5.13;;
3939;SDS011;1984;48.312;9.244;2023-07-24T07:32:20;6.80;;;5.07;;
3939;SDS011;1984;48.312;9.244;2023-07-24T07:34:46;9.43;;;5.27;;
3939;SDS011;1984;48.312;9.244;2023-07-24T07:37:11;9.60;;;4.83;;
3939;SDS011;1984;48.312;9.244;2023-07-24T07:39:37;9.60;;;5.80;;
3939;SDS011;1984;48.312;9.244;2023-07-24T07:42:02;11.57;;;5.93;;
3939;SDS011;1984;48.312;9.244;2023-07-24T07:44:28;6.83;;;4.77;;
3939;SDS011;1984;48.312;9.244;2023-07-24T07:46:53;9.57;;;4.57;;
3939;SDS011;1984;48.312;9.244;2023-07-24T07:49:19;11.30;;;4.30;;
3939;SDS011;1984;48.312;9.244;2023-07-24T07:51:44;10.90;;;4.20;;
3939;SDS011;1984;48.312;9.244;2023-07-24T07:54:10;6.47;;;4.70;;
3939;SDS011;1984;48.312;9.244;2023-07-24T07:56:35;5.77;;;4.23;;
3939;SDS011;1984;48.312;9.244;2023-07-24T07:59:01;7.80;;;4.43;;
3939;SDS011;1984;48.312;9.244;2023-07-24T08:01:27;6.83;;;4.57;;
3939;SDS011;1984;48.312;9.244;2023-07-24T08:03:52;8.73;;;4.43;;
3939;SDS011;1984;48.312;9.244;2023-07-24T08:06:18;7.10;;;4.60;;
3939;SDS011;1984;48.312;9.244;2023-07-24T08:08:43;10.73;;;4.87;;
3939;SDS011;1984;48.312;9.244;2023-07-24T08:11:09;9.60;;;5.00;;
3939;SDS011;1984;48.312;9.244;2023-07-24T08:13:34;10.10;;;5.10;;
3939;SDS011;1984;48.312;9.244;2023-07-24T08:16:00;13.80;;;4.60;;
3939;SDS011;1984;48.312;9.244;2023-07-24T08:18:28;10.10;;;5.27;;
3939;SDS011;1984;48.312;9.244;2023-07-24T08:20:56;10.53;;;4.83;;
3939;SDS011;1984;48.312;9.244;2023-07-24T08:23:21;6.10;;;4.10;;
3939;SDS011;1984;48.312;9.244;2023-07-24T08:25:50;8.47;;;4.97;;
3939;SDS011;1984;48.312;9.244;2023-07-24T08:28:17;5.90;;;4.30;;
3939;SDS011;1984;48.312;9.244;2023-07-24T08:30:42;9.80;;;4.67;;
3939;SDS011;1984;48.312;9.244;2023-07-24T08:33:08;6.37;;;4.47;;
3939;SDS011;1984;48.312;9.244;2023-07-24T08:35:33;7.60;;;4.90;;
3939;SDS011;1984;48.312;9.244;2023-07-24T08:37:59;9.80;;;4.20;;
3939;SDS011;1984;48.312;9.244;2023-07-24T08:40:24;6.73;;;4.47;;
3939;SDS011;1984;48.312;9.244;2023-07-24T08:42:50;6.33;;;4.30;;
3939;SDS011;1984;48.312;9.244;2023-07-24T08:45:16;7.17;;;4.03;;
3939;SDS011;1984;48.312;9.244;2023-07-24T08:47:42;6.70;;;4.57;;
3939;SDS011;1984;48.312;9.244;2023-07-24T08:50:09;17.87;;;5.27;;
3939;SDS011;1984;48.312;9.244;2023-07-24T08:52:37;9.80;;;5.63;;
3939;SDS011;1984;48.312;9.244;2023-07-24T08:55:04;9.93;;;4.90;;
3939;SDS011;1984;48.312;9.244;2023-07-24T08:57:30;9.37;;;5.27;;
3939;SDS011;1984;48.312;9.244;2023-07-24T08:59:56;11.00;;;5.73;;
3939;SDS011;1984;48.312;9.244;2023-07-24T09:02:23;9.57;;;5.60;;
3939;SDS011;1984;48.312;9.244;2023-07-24T09:04:49;12.80;;;6.27;;
3939;SDS011;1984;48.312;9.244;2023-07-24T09:07:14;11.60;;;5.43;;
3939;SDS011;1984;48.312;9.244;2023-07-24T09:09:40;13.00;;;6.40;;
3939;SDS011;1984;48.312;9.244;2023-07-24T09:12:05;8.87;;;5.60;;
3939;SDS011;1984;48.312;9.244;2023-07-24T09:14:31;8.07;;;5.20;;
3939;SDS011;1984;48.312;9.244;2023-07-24T09:17:03;11.47;;;6.10;;
3939;SDS011;1984;48.312;9.244;2023-07-24T09:19:30;6.40;;;4.50;;
3939;SDS011;1984;48.312;9.244;2023-07-24T09:21:55;10.03;;;5.63;;
3939;SDS011;1984;48.312;9.244;2023-07-24T09:24:21;11.50;;;7.17;;
3939;SDS011;1984;48.312;9.244;2023-07-24T09:26:53;13.80;;;6.17;;
3939;SDS011;1984;48.312;9.244;2023-07-24T09:29:18;10.80;;;4.33;;
3939;SDS011;1984;48.312;9.244;2023-07-24T09:31:45;6.00;;;4.20;;
3939;SDS011;1984;48.312;9.244;2023-07-24T09:34:14;6.77;;;4.50;;
3939;SDS011;1984;48.312;9.244;2023-07-24T09:36:41;6.23;;;4.40;;
3939;SDS011;1984;48.312;9.244;2023-07-24T09:39:07;7.07;;;4.20;;
3939;SDS011;1984;48.312;9.244;2023-07-24T09:41:35;5.67;;;3.80;;
3939;SDS011;1984;48.312;9.244;2023-07-24T09:44:01;9.80;;;4.20;;
3939;SDS011;1984;48.312;9.244;2023-07-24T09:46:26;14.50;;;6.30;;
3939;SDS011;1984;48.312;9.244;2023-07-24T09:48:56;10.37;;;5.40;;
3939;SDS011;1984;48.312;9.244;2023-07-24T09:51:23;8.97;;;5.17;;
3939;SDS011;1984;48.312;9.244;2023-07-24T09:56:31;9.07;;;4.80;;
3939;SDS011;1984;48.312;9.244;2023-07-24T09:58:57;7.80;;;4.40;;
3939;SDS011;1984;48.312;9.244;2023-07-24T10:01:25;10.70;;;4.83;;
3939;SDS011;1984;48.312;9.244;2023-07-24T10:03:52;11.70;;;5.10;;
3939;SDS011;1984;48.312;9.244;2023-07-24T10:06:18;9.50;;;4.90;;
3939;SDS011;1984;48.312;9.244;2023-07-24T10:08:45;6.50;;;4.63;;
3939;SDS011;1984;48.312;9.244;2023-07-24T10:11:12;8.70;;;4.93;;
3939;SDS011;1984;48.312;9.244;2023-07-24T10:13:39;8.80;;;4.57;;
3939;SDS011;1984;48.312;9.244;2023-07-24T10:16:05;8.10;;;4.73;;
3939;SDS011;1984;48.312;9.244;2023-07-24T10:18:32;10.57;;;5.17;;
3939;SDS011;1984;48.312;9.244;2023-07-24T10:20:59;12.83;;;4.40;;
3939;SDS011;1984;48.312;9.244;2023-07-24T10:23:27;6.77;;;4.93;;
3939;SDS011;1984;48.312;9.244;2023-07-24T10:25:52;9.17;;;4.80;;
3939;SDS011;1984;48.312;9.244;2023-07-24T10:28:18;9.10;;;4.73;;
3939;SDS011;1984;48.312;9.244;2023-07-24T10:30:44;7.47;;;4.77;;
3939;SDS011;1984;48.312;9.244;2023-07-24T10:33:20;8.80;;;4.20;;
3939;SDS011;1984;48.312;9.244;2023-07-24T10:36:02;11.33;;;4.67;;
3939;SDS011;1984;48.312;9.244;2023-07-24T10:38:37;7.60;;;4.17;;
3939;SDS011;1984;48.312;9.244;2023-07-24T10:41:05;7.87;;;4.07;;
3939;SDS011;1984;48.312;9.244;2023-07-24T10:43:45;9.63;;;4.40;;
3939;SDS011;1984;48.312;9.244;2023-07-24T10:46:12;8.87;;;4.70;;
3939;SDS011;1984;48.312;9.244;2023-07-24T10:48:41;5.73;;;4.20;;
3939;SDS011;1984;48.312;9.244;2023-07-24T10:51:08;8.23;;;4.30;;
3939;SDS011;1984;48.312;9.244;2023-07-24T10:53:35;7.07;;;4.17;;
3939;SDS011;1984;48.312;9.244;2023-07-24T10:56:02;5.80;;;4.30;;
3939;SDS011;1984;48.312;9.244;2023-07-24T10:58:28;8.07;;;4.23;;
3939;SDS011;1984;48.312;9.244;2023-07-24T11:00:55;7.03;;;4.77;;
3939;SDS011;1984;48.312;9.244;2023-07-24T11:03:21;7.93;;;4.77;;
3939;SDS011;1984;48.312;9.244;2023-07-24T11:05:47;11.13;;;4.30;;
3939;SDS011;1984;48.312;9.244;2023-07-24T11:08:13;11.10;;;4.37;;
3939;SDS011;1984;48.312;9.244;2023-07-24T11:10:47;10.03;;;4.70;;
3939;SDS011;1984;48.312;9.244;2023-07-24T11:13:14;7.37;;;4.70;;
3939;SDS011;1984;48.312;9.244;2023-07-24T11:15:45;7.00;;;4.27;;
3939;SDS011;1984;48.312;9.244;2023-07-24T11:18:12;5.53;;;4.30;;
3939;SDS011;1984;48.312;9.244;2023-07-24T11:20:38;8.37;;;4.70;;
3939;SDS011;1984;48.312;9.244;2023-07-24T11:23:13;8.37;;;3.87;;
3939;SDS011;1984;48.312;9.244;2023-07-24T11:25:39;6.10;;;3.90;;
3939;SDS011;1984;48.312;9.244;2023-07-24T11:28:06;8.27;;;5.23;;
3939;SDS011;1984;48.312;9.244;2023-07-24T11:30:34;7.73;;;4.73;;
3939;SDS011;1984;48.312;9.244;2023-07-24T11:33:01;14.53;;;5.03;;
3939;SDS011;1984;48.312;9.244;2023-07-24T11:35:29;8.17;;;4.30;;
3939;SDS011;1984;48.312;9.244;2023-07-24T11:37:55;6.13;;;4.40;;
3939;SDS011;1984;48.312;9.244;2023-07-24T11:40:21;4.80;;;3.77;;
3939;SDS011;1984;48.312;9.244;2023-07-24T11:42:54;4.87;;;3.53;;
3939;SDS011;1984;48.312;9.244;2023-07-24T11:45:20;6.93;;;4.07;;
3939;SDS011;1984;48.312;9.244;2023-07-24T11:47:46;6.27;;;3.63;;
3939;SDS011;1984;48.312;9.244;2023-07-24T11:50:14;5.17;;;3.50;;
3939;SDS011;1984;48.312;9.244;2023-07-24T11:55:10;6.03;;;4.13;;
3939;SDS011;1984;48.312;9.244;2023-07-24T11:57:37;8.87;;;3.87;;
3939;SDS011;1984;48.312;9.244;2023-07-24T12:00:04;7.03;;;4.60;;
3939;SDS011;1984;48.312;9.244;2023-07-24T12:02:31;6.37;;;3.00;;
3939;SDS011;1984;48.312;9.244;2023-07-24T12:04:58;4.33;;;3.10;;
3939;SDS011;1984;48.312;9.244;2023-07-24T12:07:31;4.90;;;3.60;;
3939;SDS011;1984;48.312;9.244;2023-07-24T12:10:00;6.67;;;4.20;;
3939;SDS011;1984;48.312;9.244;2023-07-24T12:12:37;4.77;;;3.47;;
3939;SDS011;1984;48.312;9.244;2023-07-24T12:15:12;5.90;;;3.23;;
3939;SDS011;1984;48.312;9.244;2023-07-24T12:17:38;5.83;;;4.43;;
3939;SDS011;1984;48.312;9.244;2023-07-24T12:20:05;7.63;;;4.13;;
3939;SDS011;1984;48.312;9.244;2023-07-24T12:22:33;5.93;;;3.60;;
3939;SDS011;1984;48.312;9.244;2023-07-24T12:24:59;4.07;;;3.30;;
3939;SDS011;1984;48.312;9.244;2023-07-24T12:27:24;5.50;;;3.40;;
3939;SDS011;1984;48.312;9.244;2023-07-24T12:29:51;5.90;;;3.17;;
3939;SDS011;1984;48.312;9.244;2023-07-24T12:32:17;4.53;;;3.13;;
3939;SDS011;1984;48.312;9.244;2023-07-24T12:34:43;5.23;;;3.60;;
3939;SDS011;1984;48.312;9.244;2023-07-24T12:37:11;5.90;;;3.20;;
3939;SDS011;1984;48.312;9.244;2023-07-24T12:39:37;5.00;;;3.37;;
3939;SDS011;1984;48.312;9.244;2023-07-24T12:42:02;9.50;;;3.20;;
3939;SDS011;1984;48.312;9.244;2023-07-24T12:44:28;3.77;;;3.00;;
3939;SDS011;1984;48.312;9.244;2023-07-24T12:46:54;8.90;;;3.43;;
3939;SDS011;1984;48.312;9.244;2023-07-24T12:49:19;6.00;;;3.87;;
3939;SDS011;1984;48.312;9.244;2023-07-24T12:51:45;5.47;;;3.90;;
3939;SDS011;1984;48.312;9.244;2023-07-24T12:54:26;6.97;;;3.27;;
3939;SDS011;1984;48.312;9.244;2023-07-24T12:56:51;5.80;;;3.37;;
3939;SDS011;1984;48.312;9.244;2023-07-24T12:59:17;6.20;;;2.93;;
3939;SDS011;1984;48.312;9.244;2023-07-24T13:01:43;5.53;;;3.50;;
3939;SDS011;1984;48.312;9.244;2023-07-24T13:04:09;5.10;;;3.40;;
3939;SDS011;1984;48.312;9.244;2023-07-24T13:06:35;4.00;;;2.53;;
3939;SDS011;1984;48.312;9.244;2023-07-24T13:09:01;3.77;;;3.37;;
3939;SDS011;1984;48.312;9.244;2023-07-24T13:11:27;6.23;;;3.13;;
3939;SDS011;1984;48.312;9.244;2023-07-24T13:13:54;6.63;;;3.70;;
3939;SDS011;1984;48.312;9.244;2023-07-24T13:16:19;6.40;;;3.70;;
3939;SDS011;1984;48.312;9.244;2023-07-24T13:18:45;3.93;;;2.90;;
3939;SDS011;1984;48.312;9.244;2023-07-24T13:21:11;7.07;;;3.70;;
3939;SDS011;1984;48.312;9.244;2023-07-24T13:23:36;3.23;;;2.60;;
3939;SDS011;1984;48.312;9.244;2023-07-24T13:26:02;6.00;;;3.13;;
3939;SDS011;1984;48.312;9.244;2023-07-24T13:28:28;3.50;;;3.20;;
3939;SDS011;1984;48.312;9.244;2023-07-24T13:30:54;4.90;;;3.07;;
3939;SDS011;1984;48.312;9.244;2023-07-24T13:33:20;8.33;;;3.50;;
3939;SDS011;1984;48.312;9.244;2023-07-24T13:35:47;4.73;;;3.33;;
3939;SDS011;1984;48.312;9.244;2023-07-24T13:38:13;6.90;;;3.63;;
3939;SDS011;1984;48.312;9.244;2023-07-24T13:40:39;5.67;;;4.13;;
3939;SDS011;1984;48.312;9.244;2023-07-24T13:43:05;7.10;;;4.03;;
3939;SDS011;1984;48.312;9.244;2023-07-24T13:45:30;6.10;;;3.40;;
3939;SDS011;1984;48.312;9.244;2023-07-24T13:47:56;7.37;;;4.33;;
3939;SDS011;1984;48.312;9.244;2023-07-24T13:50:23;4.87;;;3.00;;
3939;SDS011;1984;48.312;9.244;2023-07-24T13:52:49;8.50;;;3.73;;
3939;SDS011;1984;48.312;9.244;2023-07-24T13:55:14;4.50;;;3.40;;
3939;SDS011;1984;48.312;9.244;2023-07-24T13:57:40;7.27;;;4.20;;
3939;SDS011;1984;48.312;9.244;2023-07-24T14:00:06;5.50;;;3.70;;
3939;SDS011;1984;48.312;9.244;2023-07-24T14:02:32;4.87;;;3.60;;
3939;SDS011;1984;48.312;9.244;2023-07-24T14:04:57;5.03;;;3.20;;
3939;SDS011;1984;48.312;9.244;2023-07-24T14:07:23;5.10;;;3.23;;
3939;SDS011;1984;48.312;9.244;2023-07-24T14:09:48;6.13;;;3.80;;
3939;SDS011;1984;48.312;9.244;2023-07-24T14:12:14;5.17;;;3.83;;
3939;SDS011;1984;48.312;9.244;2023-07-24T14:14:39;5.90;;;3.47;;
3939;SDS011;1984;48.312;9.244;2023-07-24T14:17:05;5.30;;;3.43;;
3939;SDS011;1984;48.312;9.244;2023-07-24T14:19:31;5.53;;;4.00;;
3939;SDS011;1984;48.312;9.244;2023-07-24T14:21:56;5.47;;;3.60;;
3939;SDS011;1984;48.312;9.244;2023-07-24T14:24:22;4.03;;;3.30;;
3939;SDS011;1984;48.312;9.244;2023-07-24T14:26:48;4.63;;;3.80;;
3939;SDS011;1984;48.312;9.244;2023-07-24T14:29:13;7.40;;;4.00;;
3939;SDS011;1984;48.312;9.244;2023-07-24T14:31:42;6.03;;;3.93;;
3939;SDS011;1984;48.312;9.244;2023-07-24T14:34:08;7.30;;;3.83;;
3939;SDS011;1984;48.312;9.244;2023-07-24T14:36:36;6.17;;;3.40;;
3939;SDS011;1984;48.312;9.244;2023-07-24T14:39:02;4.63;;;3.70;;
3939;SDS011;1984;48.312;9.244;2023-07-24T14:41:29;6.70;;;4.13;;
3939;SDS011;1984;48.312;9.244;2023-07-24T14:43:55;7.13;;;3.93;;
3939;SDS011;1984;48.312;9.244;2023-07-24T14:46:20;7.07;;;4.03;;
3939;SDS011;1984;48.312;9.244;2023-07-24T14:48:46;8.13;;;4.10;;
3939;SDS011;1984;48.312;9.244;2023-07-24T14:51:11;5.43;;;4.03;;
3939;SDS011;1984;48.312;9.244;2023-07-24T14:53:37;5.03;;;3.63;;
3939;SDS011;1984;48.312;9.244;2023-07-24T14:56:03;6.80;;;4.90;;
3939;SDS011;1984;48.312;9.244;2023-07-24T14:58:29;7.03;;;4.60;;
3939;SDS011;1984;48.312;9.244;2023-07-24T15:00:54;5.10;;;4.50;;
3939;SDS011;1984;48.312;9.244;2023-07-24T15:03:20;7.40;;;4.50;;
3939;SDS011;1984;48.312;9.244;2023-07-24T15:05:46;8.30;;;4.50;;
3939;SDS011;1984;48.312;9.244;2023-07-24T15:08:11;6.30;;;4.10;;
3939;SDS011;1984;48.312;9.244;2023-07-24T15:10:37;6.77;;;4.53;;
3939;SDS011;1984;48.312;9.244;2023-07-24T15:13:02;7.33;;;4.07;;
3939;SDS011;1984;48.312;9.244;2023-07-24T15:15:28;8.27;;;4.03;;
3939;SDS011;1984;48.312;9.244;2023-07-24T15:17:53;5.00;;;3.60;;